sensor_id;sensor_type;location;lat;lon;timestamp;P1;durP1;ratioP1;P2;durP2;ratioP2
75129;SDS011;63703;44.716;37.846;2022-10-17T00:00:05;5.93;;;2.63;;
75129;SDS011;63703;44.716;37.846;2022-10-17T00:02:31;4.65;;;2.03;;
75129;SDS011;63703;44.716;37.846;2022-10-17T00:04:57;10.10;;;2.97;;
75129;SDS011;63703;44.716;37.846;2022-10-17T00:07:22;9.25;;;3.35;;
75129;SDS011;63703;44.716;37.846;2022-10-17T00:09:48;7.57;;;2.00;;
75129;SDS011;63703;44.716;37.846;2022-10-17T00:12:14;6.57;;;2.08;;
75129;SDS011;63703;44.716;37.846;2022-10-17T00:14:39;8.82;;;2.50;;
75129;SDS011;63703;44.716;37.846;2022-10-17T00:17:05;5.38;;;2.58;;
75129;SDS011;63703;44.716;37.846;2022-10-17T00:19:31;5.63;;;3.40;;
75129;SDS011;63703;44.716;37.846;2022-10-17T00:21:56;10.02;;;3.17;;
75129;SDS011;63703;44.716;37.846;2022-10-17T00:24:22;7.22;;;2.53;;
75129;SDS011;63703;44.716;37.846;2022-10-17T00:26:48;7.80;;;3.72;;
75129;SDS011;63703;44.716;37.846;2022-10-17T00:29:13;8.52;;;2.63;;
75129;SDS011;63703;44.716;37.846;2022-10-17T00:31:39;6.60;;;2.28;;
75129;SDS011;63703;44.716;37.846;2022-10-17T00:34:04;5.68;;;2.15;;
75129;SDS011;63703;44.716;37.846;2022-10-17T00:36:30;6.32;;;2.28;;
75129;SDS011;63703;44.716;37.846;2022-10-17T00:38:56;5.47;;;3.00;;
75129;SDS011;63703;44.716;37.846;2022-10-17T00:41:24;8.27;;;2.55;;
75129;SDS011;63703;44.716;37.846;2022-10-17T00:44:03;6.60;;;2.20;;
75129;SDS011;63703;44.716;37.846;2022-10-17T00:46:33;3.45;;;1.60;;
75129;SDS011;63703;44.716;37.846;2022-10-17T00:49:00;4.35;;;1.23;;
75129;SDS011;63703;44.716;37.846;2022-10-17T00:51:29;13.45;;;1.55;;
75129;SDS011;63703;44.716;37.846;2022-10-17T00:56:22;3.25;;;1.25;;
75129;SDS011;63703;44.716;37.846;2022-10-17T00:58:48;8.73;;;2.00;;
75129;SDS011;63703;44.716;37.846;2022-10-17T01:01:14;6.07;;;2.00;;
75129;SDS011;63703;44.716;37.846;2022-10-17T01:03:41;5.63;;;1.88;;
75129;SDS011;63703;44.716;37.846;2022-10-17T01:06:07;8.90;;;1.92;;
75129;SDS011;63703;44.716;37.846;2022-10-17T01:08:32;6.20;;;2.45;;
75129;SDS011;63703;44.716;37.846;2022-10-17T01:11:01;5.50;;;2.80;;
75129;SDS011;63703;44.716;37.846;2022-10-17T01:13:34;7.80;;;3.30;;
75129;SDS011;63703;44.716;37.846;2022-10-17T01:16:10;6.57;;;2.10;;
75129;SDS011;63703;44.716;37.846;2022-10-17T01:21:24;6.50;;;3.47;;
75129;SDS011;63703;44.716;37.846;2022-10-17T01:31:45;8.80;;;3.22;;
75129;SDS011;63703;44.716;37.846;2022-10-17T01:36:53;9.38;;;2.90;;
75129;SDS011;63703;44.716;37.846;2022-10-17T01:39:27;6.35;;;2.50;;
75129;SDS011;63703;44.716;37.846;2022-10-17T01:41:59;6.25;;;3.05;;
75129;SDS011;63703;44.716;37.846;2022-10-17T01:44:38;6.68;;;1.65;;
75129;SDS011;63703;44.716;37.846;2022-10-17T01:47:06;7.85;;;2.67;;
75129;SDS011;63703;44.716;37.846;2022-10-17T01:49:32;7.15;;;2.88;;
75129;SDS011;63703;44.716;37.846;2022-10-17T01:52:01;7.38;;;3.03;;
75129;SDS011;63703;44.716;37.846;2022-10-17T01:54:33;6.55;;;3.90;;
75129;SDS011;63703;44.716;37.846;2022-10-17T01:57:03;9.05;;;4.35;;
75129;SDS011;63703;44.716;37.846;2022-10-17T01:59:33;8.05;;;3.85;;
75129;SDS011;63703;44.716;37.846;2022-10-17T02:02:01;5.13;;;2.58;;
75129;SDS011;63703;44.716;37.846;2022-10-17T02:04:27;5.45;;;2.83;;
75129;SDS011;63703;44.716;37.846;2022-10-17T02:06:53;5.95;;;3.25;;
75129;SDS011;63703;44.716;37.846;2022-10-17T02:09:23;5.53;;;2.63;;
75129;SDS011;63703;44.716;37.846;2022-10-17T02:17:17;5.68;;;2.75;;
75129;SDS011;63703;44.716;37.846;2022-10-17T02:27:24;8.50;;;4.45;;
75129;SDS011;63703;44.716;37.846;2022-10-17T02:30:07;6.80;;;2.97;;
75129;SDS011;63703;44.716;37.846;2022-10-17T02:32:39;5.70;;;3.08;;
75129;SDS011;63703;44.716;37.846;2022-10-17T02:35:08;7.18;;;3.85;;
75129;SDS011;63703;44.716;37.846;2022-10-17T02:37:35;7.40;;;3.22;;
75129;SDS011;63703;44.716;37.846;2022-10-17T02:40:02;7.40;;;4.82;;
75129;SDS011;63703;44.716;37.846;2022-10-17T02:42:28;7.47;;;4.47;;
75129;SDS011;63703;44.716;37.846;2022-10-17T02:44:57;6.05;;;3.88;;
75129;SDS011;63703;44.716;37.846;2022-10-17T02:47:29;6.65;;;2.97;;
75129;SDS011;63703;44.716;37.846;2022-10-17T02:49:56;8.48;;;3.55;;
75129;SDS011;63703;44.716;37.846;2022-10-17T02:54:53;7.80;;;3.88;;
75129;SDS011;63703;44.716;37.846;2022-10-17T02:59:47;7.20;;;4.15;;
75129;SDS011;63703;44.716;37.846;2022-10-17T03:02:14;5.47;;;3.30;;
75129;SDS011;63703;44.716;37.846;2022-10-17T03:04:43;8.80;;;3.60;;
75129;SDS011;63703;44.716;37.846;2022-10-17T03:07:09;9.20;;;2.90;;
75129;SDS011;63703;44.716;37.846;2022-10-17T03:09:34;8.35;;;3.70;;
75129;SDS011;63703;44.716;37.846;2022-10-17T03:12:00;7.70;;;4.28;;
75129;SDS011;63703;44.716;37.846;2022-10-17T03:14:26;5.88;;;3.33;;
75129;SDS011;63703;44.716;37.846;2022-10-17T03:16:51;6.65;;;4.22;;
75129;SDS011;63703;44.716;37.846;2022-10-17T03:19:18;6.75;;;3.13;;
75129;SDS011;63703;44.716;37.846;2022-10-17T03:21:43;7.93;;;4.22;;
75129;SDS011;63703;44.716;37.846;2022-10-17T03:24:10;6.63;;;2.75;;
75129;SDS011;63703;44.716;37.846;2022-10-17T03:26:36;5.80;;;2.78;;
75129;SDS011;63703;44.716;37.846;2022-10-17T03:29:02;5.65;;;3.22;;
75129;SDS011;63703;44.716;37.846;2022-10-17T03:31:28;7.80;;;2.58;;
75129;SDS011;63703;44.716;37.846;2022-10-17T03:33:55;5.22;;;2.83;;
75129;SDS011;63703;44.716;37.846;2022-10-17T03:36:20;10.77;;;4.05;;
75129;SDS011;63703;44.716;37.846;2022-10-17T03:38:46;5.15;;;3.20;;
75129;SDS011;63703;44.716;37.846;2022-10-17T03:41:13;8.82;;;4.03;;
75129;SDS011;63703;44.716;37.846;2022-10-17T03:43:39;5.68;;;2.95;;
75129;SDS011;63703;44.716;37.846;2022-10-17T03:46:05;5.68;;;2.90;;
75129;SDS011;63703;44.716;37.846;2022-10-17T03:48:32;7.50;;;3.30;;
75129;SDS011;63703;44.716;37.846;2022-10-17T03:50:59;6.10;;;2.75;;
75129;SDS011;63703;44.716;37.846;2022-10-17T03:53:26;10.20;;;4.93;;
75129;SDS011;63703;44.716;37.846;2022-10-17T03:55:52;6.88;;;4.90;;
75129;SDS011;63703;44.716;37.846;2022-10-17T03:58:18;5.88;;;3.63;;
75129;SDS011;63703;44.716;37.846;2022-10-17T04:00:43;7.18;;;3.38;;
75129;SDS011;63703;44.716;37.846;2022-10-17T04:03:09;10.70;;;4.55;;
75129;SDS011;63703;44.716;37.846;2022-10-17T04:05:35;6.75;;;3.80;;
75129;SDS011;63703;44.716;37.846;2022-10-17T04:08:01;7.20;;;5.20;;
75129;SDS011;63703;44.716;37.846;2022-10-17T04:10:46;8.40;;;4.20;;
75129;SDS011;63703;44.716;37.846;2022-10-17T04:13:12;7.50;;;5.30;;
75129;SDS011;63703;44.716;37.846;2022-10-17T04:15:38;9.63;;;6.10;;
75129;SDS011;63703;44.716;37.846;2022-10-17T04:18:04;7.03;;;4.90;;
75129;SDS011;63703;44.716;37.846;2022-10-17T04:20:30;9.48;;;5.03;;
75129;SDS011;63703;44.716;37.846;2022-10-17T04:22:56;10.77;;;6.60;;
75129;SDS011;63703;44.716;37.846;2022-10-17T04:25:21;9.90;;;5.35;;
75129;SDS011;63703;44.716;37.846;2022-10-17T04:27:49;9.63;;;5.75;;
75129;SDS011;63703;44.716;37.846;2022-10-17T04:30:15;9.35;;;5.65;;
75129;SDS011;63703;44.716;37.846;2022-10-17T04:32:41;12.38;;;6.80;;
75129;SDS011;63703;44.716;37.846;2022-10-17T04:35:13;12.20;;;6.57;;
75129;SDS011;63703;44.716;37.846;2022-10-17T04:37:44;13.10;;;6.47;;
75129;SDS011;63703;44.716;37.846;2022-10-17T04:40:15;12.70;;;6.82;;
75129;SDS011;63703;44.716;37.846;2022-10-17T04:42:43;10.63;;;6.10;;
75129;SDS011;63703;44.716;37.846;2022-10-17T04:45:11;11.15;;;7.88;;
75129;SDS011;63703;44.716;37.846;2022-10-17T04:47:38;12.93;;;5.72;;
75129;SDS011;63703;44.716;37.846;2022-10-17T04:50:04;11.55;;;5.28;;
75129;SDS011;63703;44.716;37.846;2022-10-17T04:52:33;10.48;;;5.57;;
75129;SDS011;63703;44.716;37.846;2022-10-17T04:54:59;11.30;;;6.63;;
75129;SDS011;63703;44.716;37.846;2022-10-17T04:57:25;12.52;;;6.63;;
75129;SDS011;63703;44.716;37.846;2022-10-17T04:59:58;12.38;;;6.85;;
75129;SDS011;63703;44.716;37.846;2022-10-17T05:02:38;11.05;;;6.80;;
75129;SDS011;63703;44.716;37.846;2022-10-17T05:05:04;14.80;;;5.43;;
75129;SDS011;63703;44.716;37.846;2022-10-17T05:07:29;11.40;;;6.28;;
75129;SDS011;63703;44.716;37.846;2022-10-17T05:10:01;12.77;;;6.72;;
75129;SDS011;63703;44.716;37.846;2022-10-17T05:12:28;14.75;;;6.85;;
75129;SDS011;63703;44.716;37.846;2022-10-17T05:14:54;11.82;;;7.10;;
75129;SDS011;63703;44.716;37.846;2022-10-17T05:17:23;9.10;;;6.45;;
75129;SDS011;63703;44.716;37.846;2022-10-17T05:19:48;12.60;;;5.40;;
75129;SDS011;63703;44.716;37.846;2022-10-17T05:22:15;11.50;;;6.45;;
75129;SDS011;63703;44.716;37.846;2022-10-17T05:24:42;10.15;;;5.47;;
75129;SDS011;63703;44.716;37.846;2022-10-17T05:27:08;9.73;;;5.25;;
75129;SDS011;63703;44.716;37.846;2022-10-17T05:29:34;10.43;;;6.00;;
75129;SDS011;63703;44.716;37.846;2022-10-17T05:32:14;12.13;;;6.40;;
75129;SDS011;63703;44.716;37.846;2022-10-17T05:34:40;10.20;;;6.70;;
75129;SDS011;63703;44.716;37.846;2022-10-17T05:37:05;14.40;;;6.55;;
75129;SDS011;63703;44.716;37.846;2022-10-17T05:39:32;9.77;;;5.22;;
75129;SDS011;63703;44.716;37.846;2022-10-17T05:41:58;12.05;;;6.70;;
75129;SDS011;63703;44.716;37.846;2022-10-17T05:44:24;10.05;;;6.13;;
75129;SDS011;63703;44.716;37.846;2022-10-17T05:46:53;9.65;;;6.20;;
75129;SDS011;63703;44.716;37.846;2022-10-17T05:49:19;10.05;;;5.93;;
75129;SDS011;63703;44.716;37.846;2022-10-17T05:51:46;8.63;;;4.95;;
75129;SDS011;63703;44.716;37.846;2022-10-17T05:54:13;10.23;;;4.95;;
75129;SDS011;63703;44.716;37.846;2022-10-17T05:56:39;9.77;;;5.15;;
75129;SDS011;63703;44.716;37.846;2022-10-17T05:59:04;9.07;;;4.32;;
75129;SDS011;63703;44.716;37.846;2022-10-17T06:04:07;10.32;;;5.55;;
75129;SDS011;63703;44.716;37.846;2022-10-17T06:06:34;12.73;;;6.15;;
75129;SDS011;63703;44.716;37.846;2022-10-17T06:09:01;8.30;;;5.38;;
75129;SDS011;63703;44.716;37.846;2022-10-17T06:11:31;10.35;;;5.35;;
75129;SDS011;63703;44.716;37.846;2022-10-17T06:13:57;7.97;;;4.68;;
75129;SDS011;63703;44.716;37.846;2022-10-17T06:16:24;9.23;;;3.80;;
75129;SDS011;63703;44.716;37.846;2022-10-17T06:18:50;8.32;;;4.22;;
75129;SDS011;63703;44.716;37.846;2022-10-17T06:21:18;9.88;;;5.78;;
75129;SDS011;63703;44.716;37.846;2022-10-17T06:23:46;10.30;;;5.30;;
75129;SDS011;63703;44.716;37.846;2022-10-17T06:26:16;8.48;;;4.57;;
75129;SDS011;63703;44.716;37.846;2022-10-17T06:28:41;11.10;;;4.35;;
75129;SDS011;63703;44.716;37.846;2022-10-17T06:31:08;9.27;;;4.32;;
75129;SDS011;63703;44.716;37.846;2022-10-17T06:33:34;10.55;;;5.22;;
75129;SDS011;63703;44.716;37.846;2022-10-17T06:36:02;9.50;;;4.72;;
75129;SDS011;63703;44.716;37.846;2022-10-17T06:38:29;15.52;;;5.50;;
75129;SDS011;63703;44.716;37.846;2022-10-17T06:41:04;10.93;;;4.68;;
75129;SDS011;63703;44.716;37.846;2022-10-17T06:43:33;10.32;;;5.45;;
75129;SDS011;63703;44.716;37.846;2022-10-17T06:46:21;10.95;;;4.53;;
75129;SDS011;63703;44.716;37.846;2022-10-17T06:48:56;11.02;;;5.03;;
75129;SDS011;63703;44.716;37.846;2022-10-17T06:51:36;11.75;;;5.82;;
75129;SDS011;63703;44.716;37.846;2022-10-17T06:54:05;9.90;;;4.97;;
75129;SDS011;63703;44.716;37.846;2022-10-17T06:56:46;10.93;;;5.35;;
75129;SDS011;63703;44.716;37.846;2022-10-17T06:59:30;12.18;;;5.82;;
75129;SDS011;63703;44.716;37.846;2022-10-17T07:02:10;8.18;;;4.28;;
75129;SDS011;63703;44.716;37.846;2022-10-17T07:04:36;9.00;;;4.10;;
75129;SDS011;63703;44.716;37.846;2022-10-17T07:07:02;7.80;;;3.38;;
75129;SDS011;63703;44.716;37.846;2022-10-17T07:09:28;9.40;;;4.75;;
75129;SDS011;63703;44.716;37.846;2022-10-17T07:11:56;7.53;;;3.25;;
75129;SDS011;63703;44.716;37.846;2022-10-17T07:14:22;6.95;;;3.35;;
75129;SDS011;63703;44.716;37.846;2022-10-17T07:16:47;9.25;;;3.63;;
75129;SDS011;63703;44.716;37.846;2022-10-17T07:19:19;7.22;;;3.25;;
75129;SDS011;63703;44.716;37.846;2022-10-17T07:21:45;6.35;;;3.78;;
75129;SDS011;63703;44.716;37.846;2022-10-17T07:24:11;7.32;;;3.60;;
75129;SDS011;63703;44.716;37.846;2022-10-17T07:26:40;7.53;;;3.88;;
75129;SDS011;63703;44.716;37.846;2022-10-17T07:29:05;9.35;;;4.35;;
75129;SDS011;63703;44.716;37.846;2022-10-17T07:31:51;9.55;;;4.10;;
75129;SDS011;63703;44.716;37.846;2022-10-17T07:34:17;7.47;;;3.53;;
75129;SDS011;63703;44.716;37.846;2022-10-17T07:36:43;9.63;;;4.70;;
75129;SDS011;63703;44.716;37.846;2022-10-17T07:39:11;10.45;;;3.97;;
75129;SDS011;63703;44.716;37.846;2022-10-17T07:41:37;7.03;;;3.42;;
75129;SDS011;63703;44.716;37.846;2022-10-17T07:44:03;7.78;;;4.70;;
75129;SDS011;63703;44.716;37.846;2022-10-17T07:46:36;8.70;;;2.67;;
75129;SDS011;63703;44.716;37.846;2022-10-17T07:49:01;8.27;;;3.83;;
75129;SDS011;63703;44.716;37.846;2022-10-17T07:51:27;7.70;;;3.83;;
75129;SDS011;63703;44.716;37.846;2022-10-17T07:53:53;7.47;;;3.20;;
75129;SDS011;63703;44.716;37.846;2022-10-17T07:56:19;7.60;;;3.50;;
75129;SDS011;63703;44.716;37.846;2022-10-17T07:58:49;8.88;;;4.30;;
75129;SDS011;63703;44.716;37.846;2022-10-17T08:01:15;8.25;;;3.53;;
75129;SDS011;63703;44.716;37.846;2022-10-17T08:03:45;8.68;;;3.78;;
75129;SDS011;63703;44.716;37.846;2022-10-17T08:06:11;8.18;;;3.83;;
75129;SDS011;63703;44.716;37.846;2022-10-17T08:08:36;8.40;;;4.13;;
75129;SDS011;63703;44.716;37.846;2022-10-17T08:11:03;7.50;;;3.53;;
75129;SDS011;63703;44.716;37.846;2022-10-17T08:13:29;7.68;;;3.10;;
75129;SDS011;63703;44.716;37.846;2022-10-17T08:16:02;9.65;;;4.78;;
75129;SDS011;63703;44.716;37.846;2022-10-17T08:18:28;9.48;;;4.40;;
75129;SDS011;63703;44.716;37.846;2022-10-17T08:20:53;8.85;;;4.28;;
75129;SDS011;63703;44.716;37.846;2022-10-17T08:23:19;9.73;;;4.85;;
75129;SDS011;63703;44.716;37.846;2022-10-17T08:25:45;9.25;;;4.85;;
75129;SDS011;63703;44.716;37.846;2022-10-17T08:28:11;11.30;;;5.22;;
75129;SDS011;63703;44.716;37.846;2022-10-17T08:30:36;7.07;;;3.65;;
75129;SDS011;63703;44.716;37.846;2022-10-17T08:33:02;6.53;;;3.03;;
75129;SDS011;63703;44.716;37.846;2022-10-17T08:35:28;8.02;;;3.33;;
75129;SDS011;63703;44.716;37.846;2022-10-17T08:37:53;8.80;;;3.95;;
75129;SDS011;63703;44.716;37.846;2022-10-17T08:40:20;6.55;;;2.90;;
75129;SDS011;63703;44.716;37.846;2022-10-17T08:42:57;8.52;;;3.53;;
75129;SDS011;63703;44.716;37.846;2022-10-17T08:45:29;6.85;;;3.47;;
75129;SDS011;63703;44.716;37.846;2022-10-17T08:47:57;7.35;;;3.67;;
75129;SDS011;63703;44.716;37.846;2022-10-17T08:55:39;7.55;;;3.88;;
75129;SDS011;63703;44.716;37.846;2022-10-17T08:58:18;6.80;;;3.08;;
75129;SDS011;63703;44.716;37.846;2022-10-17T09:05:55;6.63;;;3.28;;
75129;SDS011;63703;44.716;37.846;2022-10-17T09:08:44;8.32;;;3.03;;
75129;SDS011;63703;44.716;37.846;2022-10-17T09:13:49;6.18;;;2.17;;
75129;SDS011;63703;44.716;37.846;2022-10-17T09:19:09;7.38;;;3.05;;
75129;SDS011;63703;44.716;37.846;2022-10-17T09:24:05;6.25;;;2.22;;
75129;SDS011;63703;44.716;37.846;2022-10-17T09:26:36;7.22;;;3.28;;
75129;SDS011;63703;44.716;37.846;2022-10-17T09:29:04;4.85;;;2.25;;
75129;SDS011;63703;44.716;37.846;2022-10-17T09:31:39;5.70;;;2.53;;
75129;SDS011;63703;44.716;37.846;2022-10-17T09:34:07;7.18;;;2.80;;
75129;SDS011;63703;44.716;37.846;2022-10-17T09:36:37;5.07;;;2.65;;
75129;SDS011;63703;44.716;37.846;2022-10-17T09:39:10;7.00;;;3.30;;
75129;SDS011;63703;44.716;37.846;2022-10-17T09:41:42;5.95;;;2.65;;
75129;SDS011;63703;44.716;37.846;2022-10-17T09:44:22;4.28;;;1.60;;
75129;SDS011;63703;44.716;37.846;2022-10-17T09:49:37;4.88;;;2.70;;
75129;SDS011;63703;44.716;37.846;2022-10-17T09:52:04;5.35;;;2.90;;
75129;SDS011;63703;44.716;37.846;2022-10-17T09:54:38;4.35;;;1.90;;
75129;SDS011;63703;44.716;37.846;2022-10-17T09:57:05;5.22;;;1.58;;
75129;SDS011;63703;44.716;37.846;2022-10-17T09:59:44;6.80;;;2.70;;
75129;SDS011;63703;44.716;37.846;2022-10-17T10:02:20;5.22;;;1.83;;
75129;SDS011;63703;44.716;37.846;2022-10-17T10:07:18;4.40;;;2.65;;
75129;SDS011;63703;44.716;37.846;2022-10-17T10:09:45;4.22;;;2.13;;
75129;SDS011;63703;44.716;37.846;2022-10-17T10:12:19;4.90;;;2.17;;
75129;SDS011;63703;44.716;37.846;2022-10-17T10:14:45;6.47;;;2.25;;
75129;SDS011;63703;44.716;37.846;2022-10-17T10:19:55;5.22;;;2.30;;
75129;SDS011;63703;44.716;37.846;2022-10-17T10:22:21;6.40;;;2.58;;
75129;SDS011;63703;44.716;37.846;2022-10-17T10:27:34;6.18;;;3.35;;
75129;SDS011;63703;44.716;37.846;2022-10-17T10:29:59;5.03;;;1.67;;
75129;SDS011;63703;44.716;37.846;2022-10-17T10:32:26;4.57;;;2.20;;
75129;SDS011;63703;44.716;37.846;2022-10-17T10:35:05;5.93;;;2.63;;
75129;SDS011;63703;44.716;37.846;2022-10-17T10:37:36;5.57;;;2.78;;
75129;SDS011;63703;44.716;37.846;2022-10-17T10:40:03;5.93;;;2.15;;
75129;SDS011;63703;44.716;37.846;2022-10-17T10:42:34;4.80;;;2.22;;
75129;SDS011;63703;44.716;37.846;2022-10-17T10:45:17;5.45;;;2.40;;
75129;SDS011;63703;44.716;37.846;2022-10-17T10:47:50;5.45;;;2.00;;
75129;SDS011;63703;44.716;37.846;2022-10-17T10:50:24;6.68;;;2.38;;
75129;SDS011;63703;44.716;37.846;2022-10-17T10:52:55;5.00;;;2.33;;
75129;SDS011;63703;44.716;37.846;2022-10-17T10:55:22;6.22;;;2.38;;
75129;SDS011;63703;44.716;37.846;2022-10-17T10:57:51;6.47;;;2.30;;
75129;SDS011;63703;44.716;37.846;2022-10-17T11:00:19;5.47;;;2.65;;
75129;SDS011;63703;44.716;37.846;2022-10-17T11:08:27;6.63;;;3.25;;
75129;SDS011;63703;44.716;37.846;2022-10-17T11:13:33;8.65;;;3.15;;
75129;SDS011;63703;44.716;37.846;2022-10-17T11:21:09;6.07;;;3.05;;
75129;SDS011;63703;44.716;37.846;2022-10-17T11:26:04;6.63;;;3.30;;
75129;SDS011;63703;44.716;37.846;2022-10-17T11:28:31;8.82;;;2.88;;
75129;SDS011;63703;44.716;37.846;2022-10-17T11:31:02;8.23;;;3.35;;
75129;SDS011;63703;44.716;37.846;2022-10-17T11:33:33;7.25;;;3.10;;
75129;SDS011;63703;44.716;37.846;2022-10-17T11:36:02;5.63;;;2.67;;
75129;SDS011;63703;44.716;37.846;2022-10-17T11:38:37;6.95;;;3.20;;
75129;SDS011;63703;44.716;37.846;2022-10-17T11:41:04;5.60;;;2.38;;
75129;SDS011;63703;44.716;37.846;2022-10-17T11:46:14;6.47;;;2.97;;
75129;SDS011;63703;44.716;37.846;2022-10-17T11:51:13;6.03;;;2.97;;
75129;SDS011;63703;44.716;37.846;2022-10-17T11:53:44;6.10;;;2.58;;
75129;SDS011;63703;44.716;37.846;2022-10-17T11:56:10;7.45;;;3.10;;
75129;SDS011;63703;44.716;37.846;2022-10-17T12:01:16;8.18;;;3.67;;
75129;SDS011;63703;44.716;37.846;2022-10-17T12:11:50;10.18;;;3.47;;
75129;SDS011;63703;44.716;37.846;2022-10-17T12:17:03;5.50;;;3.38;;
75129;SDS011;63703;44.716;37.846;2022-10-17T12:19:29;6.90;;;3.35;;
75129;SDS011;63703;44.716;37.846;2022-10-17T12:24:32;6.53;;;2.55;;
75129;SDS011;63703;44.716;37.846;2022-10-17T12:27:19;5.57;;;1.98;;
75129;SDS011;63703;44.716;37.846;2022-10-17T12:29:43;4.05;;;1.92;;
75129;SDS011;63703;44.716;37.846;2022-10-17T12:32:10;4.45;;;2.58;;
75129;SDS011;63703;44.716;37.846;2022-10-17T12:34:36;4.63;;;1.63;;
75129;SDS011;63703;44.716;37.846;2022-10-17T12:37:02;4.43;;;1.40;;
75129;SDS011;63703;44.716;37.846;2022-10-17T12:41:53;3.92;;;2.25;;
75129;SDS011;63703;44.716;37.846;2022-10-17T12:44:34;3.47;;;1.67;;
75129;SDS011;63703;44.716;37.846;2022-10-17T12:49:38;4.45;;;2.22;;
75129;SDS011;63703;44.716;37.846;2022-10-17T12:52:12;5.53;;;1.10;;
75129;SDS011;63703;44.716;37.846;2022-10-17T12:54:39;4.03;;;1.40;;
75129;SDS011;63703;44.716;37.846;2022-10-17T12:57:14;3.80;;;1.52;;
75129;SDS011;63703;44.716;37.846;2022-10-17T12:59:43;4.85;;;1.75;;
75129;SDS011;63703;44.716;37.846;2022-10-17T13:02:11;4.75;;;1.63;;
75129;SDS011;63703;44.716;37.846;2022-10-17T13:04:41;3.70;;;1.73;;
75129;SDS011;63703;44.716;37.846;2022-10-17T13:07:11;4.57;;;1.67;;
75129;SDS011;63703;44.716;37.846;2022-10-17T13:09:41;5.15;;;2.17;;
75129;SDS011;63703;44.716;37.846;2022-10-17T13:12:11;5.85;;;3.05;;
75129;SDS011;63703;44.716;37.846;2022-10-17T13:14:38;5.22;;;2.00;;
75129;SDS011;63703;44.716;37.846;2022-10-17T13:17:05;5.03;;;1.90;;
75129;SDS011;63703;44.716;37.846;2022-10-17T13:19:44;5.55;;;2.25;;
75129;SDS011;63703;44.716;37.846;2022-10-17T13:22:21;5.15;;;2.95;;
75129;SDS011;63703;44.716;37.846;2022-10-17T13:24:48;5.28;;;2.20;;
75129;SDS011;63703;44.716;37.846;2022-10-17T13:29:46;5.90;;;1.60;;
75129;SDS011;63703;44.716;37.846;2022-10-17T13:32:11;4.88;;;2.05;;
75129;SDS011;63703;44.716;37.846;2022-10-17T13:34:37;5.45;;;1.98;;
75129;SDS011;63703;44.716;37.846;2022-10-17T13:37:04;7.50;;;2.38;;
75129;SDS011;63703;44.716;37.846;2022-10-17T13:39:34;4.85;;;2.10;;
75129;SDS011;63703;44.716;37.846;2022-10-17T13:42:00;5.82;;;2.10;;
75129;SDS011;63703;44.716;37.846;2022-10-17T13:44:27;4.07;;;1.80;;
75129;SDS011;63703;44.716;37.846;2022-10-17T13:46:56;5.90;;;2.42;;
75129;SDS011;63703;44.716;37.846;2022-10-17T13:49:22;5.57;;;2.35;;
75129;SDS011;63703;44.716;37.846;2022-10-17T13:51:51;5.20;;;2.25;;
75129;SDS011;63703;44.716;37.846;2022-10-17T13:56:55;4.13;;;1.58;;
75129;SDS011;63703;44.716;37.846;2022-10-17T13:59:23;4.25;;;1.55;;
75129;SDS011;63703;44.716;37.846;2022-10-17T14:01:49;5.25;;;2.88;;
75129;SDS011;63703;44.716;37.846;2022-10-17T14:04:16;5.78;;;2.30;;
75129;SDS011;63703;44.716;37.846;2022-10-17T14:06:42;4.10;;;1.58;;
75129;SDS011;63703;44.716;37.846;2022-10-17T14:09:20;3.95;;;1.45;;
75129;SDS011;63703;44.716;37.846;2022-10-17T14:11:55;4.15;;;2.00;;
75129;SDS011;63703;44.716;37.846;2022-10-17T14:14:22;5.25;;;2.20;;
75129;SDS011;63703;44.716;37.846;2022-10-17T14:16:50;5.07;;;2.75;;
75129;SDS011;63703;44.716;37.846;2022-10-17T14:21:47;4.78;;;2.40;;
75129;SDS011;63703;44.716;37.846;2022-10-17T14:26:51;7.50;;;2.65;;
75129;SDS011;63703;44.716;37.846;2022-10-17T14:29:21;6.53;;;2.30;;
75129;SDS011;63703;44.716;37.846;2022-10-17T14:31:48;7.32;;;2.65;;
75129;SDS011;63703;44.716;37.846;2022-10-17T14:34:22;5.97;;;2.35;;
75129;SDS011;63703;44.716;37.846;2022-10-17T14:36:49;6.07;;;3.72;;
75129;SDS011;63703;44.716;37.846;2022-10-17T14:39:19;6.75;;;3.22;;
75129;SDS011;63703;44.716;37.846;2022-10-17T14:44:16;6.00;;;2.50;;
75129;SDS011;63703;44.716;37.846;2022-10-17T14:46:44;5.43;;;2.90;;
75129;SDS011;63703;44.716;37.846;2022-10-17T14:49:17;5.13;;;2.10;;
75129;SDS011;63703;44.716;37.846;2022-10-17T14:54:28;5.97;;;2.55;;
75129;SDS011;63703;44.716;37.846;2022-10-17T14:56:54;7.57;;;3.17;;
75129;SDS011;63703;44.716;37.846;2022-10-17T14:59:20;5.90;;;2.80;;
75129;SDS011;63703;44.716;37.846;2022-10-17T15:01:50;5.55;;;3.38;;
75129;SDS011;63703;44.716;37.846;2022-10-17T15:04:16;6.97;;;3.60;;
75129;SDS011;63703;44.716;37.846;2022-10-17T15:06:42;5.78;;;3.45;;
75129;SDS011;63703;44.716;37.846;2022-10-17T15:09:09;6.97;;;4.55;;
75129;SDS011;63703;44.716;37.846;2022-10-17T15:11:35;6.18;;;3.65;;
75129;SDS011;63703;44.716;37.846;2022-10-17T15:14:00;7.38;;;4.57;;
75129;SDS011;63703;44.716;37.846;2022-10-17T15:16:29;6.85;;;3.90;;
75129;SDS011;63703;44.716;37.846;2022-10-17T15:18:55;6.90;;;4.07;;
75129;SDS011;63703;44.716;37.846;2022-10-17T15:21:21;7.45;;;4.20;;
75129;SDS011;63703;44.716;37.846;2022-10-17T15:23:47;8.95;;;4.30;;
75129;SDS011;63703;44.716;37.846;2022-10-17T15:28:39;6.85;;;3.63;;
75129;SDS011;63703;44.716;37.846;2022-10-17T15:31:04;7.13;;;3.72;;
75129;SDS011;63703;44.716;37.846;2022-10-17T15:33:30;7.75;;;4.20;;
75129;SDS011;63703;44.716;37.846;2022-10-17T15:35:56;8.10;;;3.20;;
75129;SDS011;63703;44.716;37.846;2022-10-17T15:38:21;7.78;;;3.60;;
75129;SDS011;63703;44.716;37.846;2022-10-17T15:40:47;7.95;;;4.05;;
75129;SDS011;63703;44.716;37.846;2022-10-17T15:43:15;6.47;;;3.47;;
75129;SDS011;63703;44.716;37.846;2022-10-17T15:45:40;7.32;;;3.88;;
75129;SDS011;63703;44.716;37.846;2022-10-17T15:48:06;5.90;;;3.13;;
75129;SDS011;63703;44.716;37.846;2022-10-17T15:50:32;7.00;;;3.63;;
75129;SDS011;63703;44.716;37.846;2022-10-17T15:52:58;5.40;;;3.65;;
75129;SDS011;63703;44.716;37.846;2022-10-17T15:55:23;5.18;;;2.67;;
75129;SDS011;63703;44.716;37.846;2022-10-17T15:57:49;8.05;;;4.25;;
75129;SDS011;63703;44.716;37.846;2022-10-17T16:00:16;6.13;;;3.35;;
75129;SDS011;63703;44.716;37.846;2022-10-17T16:02:42;6.53;;;3.75;;
75129;SDS011;63703;44.716;37.846;2022-10-17T16:05:16;4.93;;;2.83;;
75129;SDS011;63703;44.716;37.846;2022-10-17T16:07:42;6.18;;;3.13;;
75129;SDS011;63703;44.716;37.846;2022-10-17T16:10:10;6.28;;;4.22;;
75129;SDS011;63703;44.716;37.846;2022-10-17T16:12:36;7.07;;;3.88;;
75129;SDS011;63703;44.716;37.846;2022-10-17T16:15:06;6.32;;;3.10;;
75129;SDS011;63703;44.716;37.846;2022-10-17T16:17:32;6.32;;;2.67;;
75129;SDS011;63703;44.716;37.846;2022-10-17T16:19:58;16.77;;;2.90;;
75129;SDS011;63703;44.716;37.846;2022-10-17T16:22:26;6.15;;;3.25;;
75129;SDS011;63703;44.716;37.846;2022-10-17T16:24:54;6.65;;;2.72;;
75129;SDS011;63703;44.716;37.846;2022-10-17T16:27:23;5.57;;;3.30;;
75129;SDS011;63703;44.716;37.846;2022-10-17T16:29:48;7.65;;;4.90;;
75129;SDS011;63703;44.716;37.846;2022-10-17T16:32:14;7.65;;;3.50;;
75129;SDS011;63703;44.716;37.846;2022-10-17T16:34:39;7.32;;;3.67;;
75129;SDS011;63703;44.716;37.846;2022-10-17T16:37:05;8.40;;;3.78;;
75129;SDS011;63703;44.716;37.846;2022-10-17T16:39:30;5.90;;;3.25;;
75129;SDS011;63703;44.716;37.846;2022-10-17T16:41:56;6.35;;;3.42;;
75129;SDS011;63703;44.716;37.846;2022-10-17T16:44:22;7.78;;;3.40;;